sensor_id;sensor_type;location;lat;lon;timestamp;P1;durP1;ratioP1;P2;durP2;ratioP2
18046;SDS011;9148;51.454;13.862;2023-03-19T00:00:03;8.50;;;5.27;;
18046;SDS011;9148;51.454;13.862;2023-03-19T00:02:32;4.53;;;4.10;;
18046;SDS011;9148;51.454;13.862;2023-03-19T00:04:58;9.00;;;5.57;;
18046;SDS011;9148;51.454;13.862;2023-03-19T00:07:24;5.10;;;4.40;;
18046;SDS011;9148;51.454;13.862;2023-03-19T00:09:50;10.17;;;5.40;;
18046;SDS011;9148;51.454;13.862;2023-03-19T00:12:16;5.80;;;4.63;;
18046;SDS011;9148;51.454;13.862;2023-03-19T00:14:41;8.40;;;4.83;;
18046;SDS011;9148;51.454;13.862;2023-03-19T00:17:07;5.67;;;4.70;;
18046;SDS011;9148;51.454;13.862;2023-03-19T00:19:33;7.67;;;5.00;;
18046;SDS011;9148;51.454;13.862;2023-03-19T00:21:58;5.50;;;4.27;;
18046;SDS011;9148;51.454;13.862;2023-03-19T00:24:24;7.43;;;4.30;;
18046;SDS011;9148;51.454;13.862;2023-03-19T00:26:50;5.63;;;4.40;;
18046;SDS011;9148;51.454;13.862;2023-03-19T00:29:16;10.83;;;4.73;;
18046;SDS011;9148;51.454;13.862;2023-03-19T00:31:41;7.67;;;5.07;;
18046;SDS011;9148;51.454;13.862;2023-03-19T00:34:07;5.67;;;4.97;;
18046;SDS011;9148;51.454;13.862;2023-03-19T00:36:34;5.20;;;4.70;;
18046;SDS011;9148;51.454;13.862;2023-03-19T00:39:01;9.17;;;5.90;;
18046;SDS011;9148;51.454;13.862;2023-03-19T00:41:28;6.43;;;4.30;;
18046;SDS011;9148;51.454;13.862;2023-03-19T00:43:54;13.23;;;6.30;;
18046;SDS011;9148;51.454;13.862;2023-03-19T00:46:21;5.87;;;4.57;;
18046;SDS011;9148;51.454;13.862;2023-03-19T00:48:49;9.50;;;4.73;;
18046;SDS011;9148;51.454;13.862;2023-03-19T00:51:17;8.27;;;5.00;;
18046;SDS011;9148;51.454;13.862;2023-03-19T00:53:43;8.23;;;4.23;;
18046;SDS011;9148;51.454;13.862;2023-03-19T00:56:10;9.63;;;4.87;;
18046;SDS011;9148;51.454;13.862;2023-03-19T00:58:38;11.93;;;5.90;;
18046;SDS011;9148;51.454;13.862;2023-03-19T01:01:05;7.70;;;4.33;;
18046;SDS011;9148;51.454;13.862;2023-03-19T01:03:32;6.30;;;4.47;;
18046;SDS011;9148;51.454;13.862;2023-03-19T01:05:59;9.80;;;4.77;;
18046;SDS011;9148;51.454;13.862;2023-03-19T01:08:25;5.20;;;4.43;;
18046;SDS011;9148;51.454;13.862;2023-03-19T01:10:51;5.73;;;4.63;;
18046;SDS011;9148;51.454;13.862;2023-03-19T01:13:17;6.93;;;4.90;;
18046;SDS011;9148;51.454;13.862;2023-03-19T01:15:42;6.27;;;5.33;;
18046;SDS011;9148;51.454;13.862;2023-03-19T01:18:09;10.30;;;6.07;;
18046;SDS011;9148;51.454;13.862;2023-03-19T01:20:37;9.43;;;4.10;;
18046;SDS011;9148;51.454;13.862;2023-03-19T01:23:05;6.83;;;5.07;;
18046;SDS011;9148;51.454;13.862;2023-03-19T01:25:31;5.27;;;4.53;;
18046;SDS011;9148;51.454;13.862;2023-03-19T01:27:58;6.73;;;4.77;;
18046;SDS011;9148;51.454;13.862;2023-03-19T01:30:24;9.43;;;6.43;;
18046;SDS011;9148;51.454;13.862;2023-03-19T01:32:49;12.33;;;5.67;;
18046;SDS011;9148;51.454;13.862;2023-03-19T01:35:15;6.63;;;4.73;;
18046;SDS011;9148;51.454;13.862;2023-03-19T01:37:41;9.77;;;5.27;;
18046;SDS011;9148;51.454;13.862;2023-03-19T01:40:09;9.67;;;4.80;;
18046;SDS011;9148;51.454;13.862;2023-03-19T01:42:53;8.77;;;4.40;;
18046;SDS011;9148;51.454;13.862;2023-03-19T01:45:54;12.70;;;5.80;;
18046;SDS011;9148;51.454;13.862;2023-03-19T01:51:08;12.47;;;4.77;;
18046;SDS011;9148;51.454;13.862;2023-03-19T01:53:38;7.77;;;4.70;;
18046;SDS011;9148;51.454;13.862;2023-03-19T01:56:10;5.67;;;4.43;;
18046;SDS011;9148;51.454;13.862;2023-03-19T01:58:40;9.17;;;5.67;;
18046;SDS011;9148;51.454;13.862;2023-03-19T02:01:10;7.67;;;5.07;;
18046;SDS011;9148;51.454;13.862;2023-03-19T02:03:36;7.97;;;5.63;;
18046;SDS011;9148;51.454;13.862;2023-03-19T02:06:03;6.70;;;5.07;;
18046;SDS011;9148;51.454;13.862;2023-03-19T02:08:29;9.27;;;5.90;;
18046;SDS011;9148;51.454;13.862;2023-03-19T02:10:56;6.97;;;4.87;;
18046;SDS011;9148;51.454;13.862;2023-03-19T02:13:24;7.03;;;5.07;;
18046;SDS011;9148;51.454;13.862;2023-03-19T02:15:51;7.53;;;5.37;;
18046;SDS011;9148;51.454;13.862;2023-03-19T02:18:18;7.93;;;5.90;;
18046;SDS011;9148;51.454;13.862;2023-03-19T02:20:48;7.57;;;5.60;;
18046;SDS011;9148;51.454;13.862;2023-03-19T02:23:29;9.23;;;5.07;;
18046;SDS011;9148;51.454;13.862;2023-03-19T02:26:10;7.07;;;5.50;;
18046;SDS011;9148;51.454;13.862;2023-03-19T02:28:40;9.53;;;6.23;;
18046;SDS011;9148;51.454;13.862;2023-03-19T02:31:08;7.40;;;4.47;;
18046;SDS011;9148;51.454;13.862;2023-03-19T02:33:36;7.33;;;5.03;;
18046;SDS011;9148;51.454;13.862;2023-03-19T02:36:02;4.73;;;3.80;;
18046;SDS011;9148;51.454;13.862;2023-03-19T02:38:31;5.27;;;4.73;;
18046;SDS011;9148;51.454;13.862;2023-03-19T02:40:59;7.23;;;4.17;;
18046;SDS011;9148;51.454;13.862;2023-03-19T02:43:29;7.27;;;5.07;;
18046;SDS011;9148;51.454;13.862;2023-03-19T02:45:57;5.37;;;4.43;;
18046;SDS011;9148;51.454;13.862;2023-03-19T02:48:23;7.37;;;4.73;;
18046;SDS011;9148;51.454;13.862;2023-03-19T02:50:49;6.33;;;3.80;;
18046;SDS011;9148;51.454;13.862;2023-03-19T02:53:15;5.27;;;3.27;;
18046;SDS011;9148;51.454;13.862;2023-03-19T02:55:41;10.17;;;5.03;;
18046;SDS011;9148;51.454;13.862;2023-03-19T02:58:07;6.10;;;4.67;;
18046;SDS011;9148;51.454;13.862;2023-03-19T03:00:35;6.53;;;4.83;;
18046;SDS011;9148;51.454;13.862;2023-03-19T03:03:01;8.87;;;4.67;;
18046;SDS011;9148;51.454;13.862;2023-03-19T03:05:30;7.10;;;4.87;;
18046;SDS011;9148;51.454;13.862;2023-03-19T03:07:56;5.57;;;4.70;;
18046;SDS011;9148;51.454;13.862;2023-03-19T03:10:22;4.83;;;4.23;;
18046;SDS011;9148;51.454;13.862;2023-03-19T03:12:48;6.70;;;4.27;;
18046;SDS011;9148;51.454;13.862;2023-03-19T03:15:14;4.90;;;4.37;;
18046;SDS011;9148;51.454;13.862;2023-03-19T03:17:40;6.53;;;4.80;;
18046;SDS011;9148;51.454;13.862;2023-03-19T03:20:09;5.37;;;4.33;;
18046;SDS011;9148;51.454;13.862;2023-03-19T03:22:37;8.30;;;5.20;;
18046;SDS011;9148;51.454;13.862;2023-03-19T03:25:04;6.37;;;4.13;;
18046;SDS011;9148;51.454;13.862;2023-03-19T03:27:31;6.30;;;4.40;;
18046;SDS011;9148;51.454;13.862;2023-03-19T03:29:57;6.33;;;4.70;;
18046;SDS011;9148;51.454;13.862;2023-03-19T03:32:24;5.73;;;4.30;;
18046;SDS011;9148;51.454;13.862;2023-03-19T03:34:50;6.70;;;3.43;;
18046;SDS011;9148;51.454;13.862;2023-03-19T03:37:16;7.03;;;4.90;;
18046;SDS011;9148;51.454;13.862;2023-03-19T03:39:41;7.80;;;5.13;;
18046;SDS011;9148;51.454;13.862;2023-03-19T03:42:07;7.13;;;4.67;;
18046;SDS011;9148;51.454;13.862;2023-03-19T03:44:33;8.07;;;5.40;;
18046;SDS011;9148;51.454;13.862;2023-03-19T03:47:00;6.70;;;4.53;;
18046;SDS011;9148;51.454;13.862;2023-03-19T03:49:25;6.93;;;5.70;;
18046;SDS011;9148;51.454;13.862;2023-03-19T03:51:51;5.57;;;4.37;;
18046;SDS011;9148;51.454;13.862;2023-03-19T03:54:17;8.87;;;4.93;;
18046;SDS011;9148;51.454;13.862;2023-03-19T03:56:43;6.10;;;4.43;;
18046;SDS011;9148;51.454;13.862;2023-03-19T03:59:08;8.70;;;5.73;;
18046;SDS011;9148;51.454;13.862;2023-03-19T04:01:34;10.37;;;6.33;;
18046;SDS011;9148;51.454;13.862;2023-03-19T04:04:00;9.03;;;5.47;;
18046;SDS011;9148;51.454;13.862;2023-03-19T04:06:26;6.00;;;4.43;;
18046;SDS011;9148;51.454;13.862;2023-03-19T04:08:52;7.47;;;5.20;;
18046;SDS011;9148;51.454;13.862;2023-03-19T04:11:18;8.43;;;5.20;;
18046;SDS011;9148;51.454;13.862;2023-03-19T04:13:45;6.20;;;4.20;;
18046;SDS011;9148;51.454;13.862;2023-03-19T04:16:11;6.87;;;4.90;;
18046;SDS011;9148;51.454;13.862;2023-03-19T04:18:37;5.63;;;4.37;;
18046;SDS011;9148;51.454;13.862;2023-03-19T04:21:03;6.53;;;5.07;;
18046;SDS011;9148;51.454;13.862;2023-03-19T04:23:30;7.20;;;5.90;;
18046;SDS011;9148;51.454;13.862;2023-03-19T04:25:57;6.93;;;4.60;;
18046;SDS011;9148;51.454;13.862;2023-03-19T04:28:25;9.10;;;6.37;;
18046;SDS011;9148;51.454;13.862;2023-03-19T04:30:51;7.17;;;5.53;;
18046;SDS011;9148;51.454;13.862;2023-03-19T04:33:17;12.33;;;6.30;;
18046;SDS011;9148;51.454;13.862;2023-03-19T04:35:43;12.33;;;5.30;;
18046;SDS011;9148;51.454;13.862;2023-03-19T04:38:08;15.33;;;5.87;;
18046;SDS011;9148;51.454;13.862;2023-03-19T04:40:34;8.37;;;5.37;;
18046;SDS011;9148;51.454;13.862;2023-03-19T04:43:00;6.80;;;5.60;;
18046;SDS011;9148;51.454;13.862;2023-03-19T04:45:26;7.80;;;5.33;;
18046;SDS011;9148;51.454;13.862;2023-03-19T04:47:52;6.90;;;5.40;;
18046;SDS011;9148;51.454;13.862;2023-03-19T04:50:18;6.37;;;4.90;;
18046;SDS011;9148;51.454;13.862;2023-03-19T04:52:44;6.03;;;4.60;;
18046;SDS011;9148;51.454;13.862;2023-03-19T04:55:09;5.50;;;4.00;;
18046;SDS011;9148;51.454;13.862;2023-03-19T04:57:35;6.83;;;4.40;;
18046;SDS011;9148;51.454;13.862;2023-03-19T05:00:01;4.50;;;4.03;;
18046;SDS011;9148;51.454;13.862;2023-03-19T05:02:27;6.93;;;4.90;;
18046;SDS011;9148;51.454;13.862;2023-03-19T05:04:52;6.37;;;4.40;;
18046;SDS011;9148;51.454;13.862;2023-03-19T05:07:18;7.87;;;4.80;;
18046;SDS011;9148;51.454;13.862;2023-03-19T05:09:44;6.03;;;5.37;;
18046;SDS011;9148;51.454;13.862;2023-03-19T05:12:11;7.03;;;4.33;;
18046;SDS011;9148;51.454;13.862;2023-03-19T05:14:37;6.97;;;4.83;;
18046;SDS011;9148;51.454;13.862;2023-03-19T05:17:03;7.20;;;4.73;;
18046;SDS011;9148;51.454;13.862;2023-03-19T05:19:29;10.10;;;5.63;;
18046;SDS011;9148;51.454;13.862;2023-03-19T05:21:55;5.40;;;4.50;;
18046;SDS011;9148;51.454;13.862;2023-03-19T05:24:21;5.30;;;4.27;;
18046;SDS011;9148;51.454;13.862;2023-03-19T05:26:48;7.73;;;4.97;;
18046;SDS011;9148;51.454;13.862;2023-03-19T05:29:14;5.27;;;4.27;;
18046;SDS011;9148;51.454;13.862;2023-03-19T05:31:40;6.07;;;4.20;;
18046;SDS011;9148;51.454;13.862;2023-03-19T05:34:06;7.33;;;5.17;;
18046;SDS011;9148;51.454;13.862;2023-03-19T05:36:32;8.07;;;4.83;;
18046;SDS011;9148;51.454;13.862;2023-03-19T05:38:58;5.10;;;4.33;;
18046;SDS011;9148;51.454;13.862;2023-03-19T05:41:24;8.90;;;5.20;;
18046;SDS011;9148;51.454;13.862;2023-03-19T05:43:51;10.20;;;5.63;;
18046;SDS011;9148;51.454;13.862;2023-03-19T05:46:16;9.40;;;5.40;;
18046;SDS011;9148;51.454;13.862;2023-03-19T05:48:42;12.37;;;7.80;;
18046;SDS011;9148;51.454;13.862;2023-03-19T05:51:08;14.27;;;8.40;;
18046;SDS011;9148;51.454;13.862;2023-03-19T05:53:33;8.53;;;5.63;;
18046;SDS011;9148;51.454;13.862;2023-03-19T05:55:59;9.33;;;6.17;;
18046;SDS011;9148;51.454;13.862;2023-03-19T05:58:25;13.57;;;5.70;;
18046;SDS011;9148;51.454;13.862;2023-03-19T06:00:53;6.83;;;5.27;;
18046;SDS011;9148;51.454;13.862;2023-03-19T06:03:20;8.43;;;5.10;;
18046;SDS011;9148;51.454;13.862;2023-03-19T06:05:49;8.37;;;5.03;;
18046;SDS011;9148;51.454;13.862;2023-03-19T06:08:16;6.43;;;4.37;;
18046;SDS011;9148;51.454;13.862;2023-03-19T06:10:43;4.73;;;3.23;;
18046;SDS011;9148;51.454;13.862;2023-03-19T06:13:09;6.47;;;4.03;;
18046;SDS011;9148;51.454;13.862;2023-03-19T06:15:35;6.57;;;4.30;;
18046;SDS011;9148;51.454;13.862;2023-03-19T06:18:01;10.60;;;5.57;;
18046;SDS011;9148;51.454;13.862;2023-03-19T06:20:27;6.63;;;4.43;;
18046;SDS011;9148;51.454;13.862;2023-03-19T06:22:52;6.60;;;4.23;;
18046;SDS011;9148;51.454;13.862;2023-03-19T06:25:18;8.87;;;4.13;;
18046;SDS011;9148;51.454;13.862;2023-03-19T06:27:44;6.03;;;5.07;;
18046;SDS011;9148;51.454;13.862;2023-03-19T06:30:10;11.60;;;5.30;;
18046;SDS011;9148;51.454;13.862;2023-03-19T06:32:37;7.10;;;5.80;;
18046;SDS011;9148;51.454;13.862;2023-03-19T06:35:02;8.80;;;5.73;;
18046;SDS011;9148;51.454;13.862;2023-03-19T06:37:28;9.87;;;5.90;;
18046;SDS011;9148;51.454;13.862;2023-03-19T06:39:54;8.30;;;4.83;;
18046;SDS011;9148;51.454;13.862;2023-03-19T06:42:20;8.90;;;4.93;;
18046;SDS011;9148;51.454;13.862;2023-03-19T06:44:46;5.83;;;4.80;;
18046;SDS011;9148;51.454;13.862;2023-03-19T06:47:12;8.23;;;5.07;;
18046;SDS011;9148;51.454;13.862;2023-03-19T06:49:38;8.07;;;5.40;;
18046;SDS011;9148;51.454;13.862;2023-03-19T06:52:04;8.03;;;4.47;;
18046;SDS011;9148;51.454;13.862;2023-03-19T06:54:30;7.10;;;3.87;;
18046;SDS011;9148;51.454;13.862;2023-03-19T06:56:57;7.17;;;4.50;;
18046;SDS011;9148;51.454;13.862;2023-03-19T06:59:23;9.93;;;4.67;;
18046;SDS011;9148;51.454;13.862;2023-03-19T07:01:52;8.43;;;5.30;;
18046;SDS011;9148;51.454;13.862;2023-03-19T07:04:18;10.40;;;5.43;;
18046;SDS011;9148;51.454;13.862;2023-03-19T07:06:44;9.13;;;6.43;;
18046;SDS011;9148;51.454;13.862;2023-03-19T07:09:10;8.57;;;6.60;;
18046;SDS011;9148;51.454;13.862;2023-03-19T07:11:36;8.70;;;6.30;;
18046;SDS011;9148;51.454;13.862;2023-03-19T07:14:02;6.20;;;5.53;;
18046;SDS011;9148;51.454;13.862;2023-03-19T07:16:28;8.87;;;5.20;;
18046;SDS011;9148;51.454;13.862;2023-03-19T07:18:54;8.93;;;5.13;;
18046;SDS011;9148;51.454;13.862;2023-03-19T07:21:20;7.00;;;4.70;;
18046;SDS011;9148;51.454;13.862;2023-03-19T07:23:46;7.30;;;4.53;;
18046;SDS011;9148;51.454;13.862;2023-03-19T07:26:14;7.00;;;4.80;;
18046;SDS011;9148;51.454;13.862;2023-03-19T07:28:40;3.20;;;2.90;;
18046;SDS011;9148;51.454;13.862;2023-03-19T07:31:06;6.23;;;4.43;;
18046;SDS011;9148;51.454;13.862;2023-03-19T07:33:32;10.63;;;4.30;;
18046;SDS011;9148;51.454;13.862;2023-03-19T07:35:58;6.87;;;5.23;;
18046;SDS011;9148;51.454;13.862;2023-03-19T07:38:23;13.57;;;5.17;;
18046;SDS011;9148;51.454;13.862;2023-03-19T07:40:49;9.40;;;4.50;;
18046;SDS011;9148;51.454;13.862;2023-03-19T07:43:15;7.27;;;4.60;;
18046;SDS011;9148;51.454;13.862;2023-03-19T07:45:41;7.23;;;4.53;;
18046;SDS011;9148;51.454;13.862;2023-03-19T07:48:06;6.17;;;4.60;;
18046;SDS011;9148;51.454;13.862;2023-03-19T07:50:32;8.37;;;5.00;;
18046;SDS011;9148;51.454;13.862;2023-03-19T07:52:58;7.73;;;4.73;;
18046;SDS011;9148;51.454;13.862;2023-03-19T07:55:24;8.80;;;5.00;;
18046;SDS011;9148;51.454;13.862;2023-03-19T07:57:50;6.50;;;5.10;;
18046;SDS011;9148;51.454;13.862;2023-03-19T08:00:16;11.13;;;5.05;;
18046;SDS011;9148;51.454;13.862;2023-03-19T08:02:42;6.43;;;3.83;;
18046;SDS011;9148;51.454;13.862;2023-03-19T08:05:08;9.50;;;4.63;;
18046;SDS011;9148;51.454;13.862;2023-03-19T08:07:34;5.15;;;2.70;;
18046;SDS011;9148;51.454;13.862;2023-03-19T08:10:01;7.50;;;3.83;;
18046;SDS011;9148;51.454;13.862;2023-03-19T08:12:32;4.25;;;3.35;;
18046;SDS011;9148;51.454;13.862;2023-03-19T08:15:03;8.52;;;3.95;;
18046;SDS011;9148;51.454;13.862;2023-03-19T08:17:33;7.63;;;4.35;;
18046;SDS011;9148;51.454;13.862;2023-03-19T08:20:02;5.25;;;3.88;;
18046;SDS011;9148;51.454;13.862;2023-03-19T08:22:34;7.50;;;3.95;;
18046;SDS011;9148;51.454;13.862;2023-03-19T08:25:02;7.32;;;4.63;;
18046;SDS011;9148;51.454;13.862;2023-03-19T08:27:32;5.22;;;3.60;;
18046;SDS011;9148;51.454;13.862;2023-03-19T08:29:59;6.60;;;3.55;;
18046;SDS011;9148;51.454;13.862;2023-03-19T08:32:27;7.32;;;4.78;;
18046;SDS011;9148;51.454;13.862;2023-03-19T08:34:53;10.35;;;5.28;;
18046;SDS011;9148;51.454;13.862;2023-03-19T08:37:19;6.35;;;3.92;;
18046;SDS011;9148;51.454;13.862;2023-03-19T08:39:45;4.65;;;3.65;;
18046;SDS011;9148;51.454;13.862;2023-03-19T08:42:11;7.68;;;3.97;;
18046;SDS011;9148;51.454;13.862;2023-03-19T08:44:37;5.53;;;3.50;;
18046;SDS011;9148;51.454;13.862;2023-03-19T08:47:02;7.50;;;4.47;;
18046;SDS011;9148;51.454;13.862;2023-03-19T08:49:28;3.70;;;3.10;;
18046;SDS011;9148;51.454;13.862;2023-03-19T08:51:54;7.68;;;4.90;;
18046;SDS011;9148;51.454;13.862;2023-03-19T08:54:19;5.05;;;3.42;;
18046;SDS011;9148;51.454;13.862;2023-03-19T08:56:45;4.35;;;3.63;;
18046;SDS011;9148;51.454;13.862;2023-03-19T08:59:11;4.93;;;3.28;;
18046;SDS011;9148;51.454;13.862;2023-03-19T09:01:37;4.15;;;2.88;;
18046;SDS011;9148;51.454;13.862;2023-03-19T09:04:03;5.85;;;3.33;;
18046;SDS011;9148;51.454;13.862;2023-03-19T09:06:28;6.65;;;2.95;;
18046;SDS011;9148;51.454;13.862;2023-03-19T09:08:55;5.75;;;3.28;;
18046;SDS011;9148;51.454;13.862;2023-03-19T09:11:20;6.10;;;3.47;;
18046;SDS011;9148;51.454;13.862;2023-03-19T09:13:47;6.03;;;3.78;;
18046;SDS011;9148;51.454;13.862;2023-03-19T09:16:13;6.65;;;3.58;;
18046;SDS011;9148;51.454;13.862;2023-03-19T09:18:39;8.40;;;3.50;;
18046;SDS011;9148;51.454;13.862;2023-03-19T09:21:05;5.05;;;2.75;;
18046;SDS011;9148;51.454;13.862;2023-03-19T09:23:31;4.88;;;3.50;;
18046;SDS011;9148;51.454;13.862;2023-03-19T09:25:57;5.35;;;3.05;;
18046;SDS011;9148;51.454;13.862;2023-03-19T09:28:23;3.15;;;2.47;;
18046;SDS011;9148;51.454;13.862;2023-03-19T09:30:49;5.55;;;3.25;;
18046;SDS011;9148;51.454;13.862;2023-03-19T09:33:16;5.63;;;3.38;;
18046;SDS011;9148;51.454;13.862;2023-03-19T09:35:47;7.80;;;3.63;;
18046;SDS011;9148;51.454;13.862;2023-03-19T09:38:18;3.25;;;2.60;;
18046;SDS011;9148;51.454;13.862;2023-03-19T09:40:46;4.60;;;2.97;;
18046;SDS011;9148;51.454;13.862;2023-03-19T09:46:13;4.93;;;2.97;;
18046;SDS011;9148;51.454;13.862;2023-03-19T09:48:50;3.28;;;2.78;;
18046;SDS011;9148;51.454;13.862;2023-03-19T09:52:06;3.90;;;2.80;;
18046;SDS011;9148;51.454;13.862;2023-03-19T09:54:21;5.07;;;3.25;;
18046;SDS011;9148;51.454;13.862;2023-03-19T09:56:57;8.57;;;3.53;;
18046;SDS011;9148;51.454;13.862;2023-03-19T09:59:24;3.88;;;3.03;;
18046;SDS011;9148;51.454;13.862;2023-03-19T10:01:54;7.13;;;3.08;;
18046;SDS011;9148;51.454;13.862;2023-03-19T10:04:36;2.45;;;2.25;;
18046;SDS011;9148;51.454;13.862;2023-03-19T10:07:44;8.57;;;2.88;;
18046;SDS011;9148;51.454;13.862;2023-03-19T10:10:48;4.50;;;3.08;;
18046;SDS011;9148;51.454;13.862;2023-03-19T10:16:26;3.95;;;2.88;;
18046;SDS011;9148;51.454;13.862;2023-03-19T10:18:54;5.53;;;2.97;;
18046;SDS011;9148;51.454;13.862;2023-03-19T10:21:27;4.15;;;2.83;;
18046;SDS011;9148;51.454;13.862;2023-03-19T10:24:04;6.90;;;2.92;;
18046;SDS011;9148;51.454;13.862;2023-03-19T10:26:48;4.15;;;3.33;;
18046;SDS011;9148;51.454;13.862;2023-03-19T10:29:23;3.35;;;3.00;;
18046;SDS011;9148;51.454;13.862;2023-03-19T10:34:46;3.83;;;2.50;;
18046;SDS011;9148;51.454;13.862;2023-03-19T10:37:28;7.20;;;3.13;;
18046;SDS011;9148;51.454;13.862;2023-03-19T10:39:55;3.45;;;2.30;;
18046;SDS011;9148;51.454;13.862;2023-03-19T10:45:04;4.50;;;2.95;;
18046;SDS011;9148;51.454;13.862;2023-03-19T10:47:56;5.15;;;3.65;;
18046;SDS011;9148;51.454;13.862;2023-03-19T10:50:27;6.38;;;2.72;;
18046;SDS011;9148;51.454;13.862;2023-03-19T10:55:37;5.45;;;2.55;;
18046;SDS011;9148;51.454;13.862;2023-03-19T10:58:15;5.88;;;2.53;;
18046;SDS011;9148;51.454;13.862;2023-03-19T11:00:47;3.97;;;2.17;;
18046;SDS011;9148;51.454;13.862;2023-03-19T11:03:26;4.43;;;2.72;;
18046;SDS011;9148;51.454;13.862;2023-03-19T11:06:15;3.28;;;2.50;;
18046;SDS011;9148;51.454;13.862;2023-03-19T11:08:57;4.90;;;2.10;;
18046;SDS011;9148;51.454;13.862;2023-03-19T11:11:34;6.05;;;3.10;;
18046;SDS011;9148;51.454;13.862;2023-03-19T11:16:48;4.43;;;2.50;;
18046;SDS011;9148;51.454;13.862;2023-03-19T11:19:28;2.35;;;1.98;;
18046;SDS011;9148;51.454;13.862;2023-03-19T11:24:39;6.03;;;2.75;;
18046;SDS011;9148;51.454;13.862;2023-03-19T11:27:07;5.15;;;2.50;;
18046;SDS011;9148;51.454;13.862;2023-03-19T11:29:37;5.80;;;3.03;;
18046;SDS011;9148;51.454;13.862;2023-03-19T11:32:13;5.30;;;2.75;;
18046;SDS011;9148;51.454;13.862;2023-03-19T11:37:46;4.35;;;2.35;;
18046;SDS011;9148;51.454;13.862;2023-03-19T11:43:55;3.58;;;2.42;;
18046;SDS011;9148;51.454;13.862;2023-03-19T11:46:33;4.70;;;2.53;;
18046;SDS011;9148;51.454;13.862;2023-03-19T11:49:29;5.43;;;2.40;;
18046;SDS011;9148;51.454;13.862;2023-03-19T11:52:10;3.92;;;2.05;;
18046;SDS011;9148;51.454;13.862;2023-03-19T11:55:07;4.22;;;2.80;;
18046;SDS011;9148;51.454;13.862;2023-03-19T12:00:50;3.85;;;2.35;;
18046;SDS011;9148;51.454;13.862;2023-03-19T12:03:36;5.75;;;2.50;;
18046;SDS011;9148;51.454;13.862;2023-03-19T12:06:34;3.17;;;2.10;;
18046;SDS011;9148;51.454;13.862;2023-03-19T12:12:46;5.95;;;2.42;;
18046;SDS011;9148;51.454;13.862;2023-03-19T12:21:48;2.08;;;1.88;;
18046;SDS011;9148;51.454;13.862;2023-03-19T12:31:02;3.38;;;2.25;;
18046;SDS011;9148;51.454;13.862;2023-03-19T12:34:02;5.53;;;2.05;;
18046;SDS011;9148;51.454;13.862;2023-03-19T12:37:09;5.55;;;2.75;;
18046;SDS011;9148;51.454;13.862;2023-03-19T12:40:11;5.05;;;2.20;;
18046;SDS011;9148;51.454;13.862;2023-03-19T12:42:51;4.57;;;1.98;;
18046;SDS011;9148;51.454;13.862;2023-03-19T12:45:36;4.18;;;2.20;;
18046;SDS011;9148;51.454;13.862;2023-03-19T12:48:14;3.67;;;2.72;;
18046;SDS011;9148;51.454;13.862;2023-03-19T12:50:49;3.03;;;1.98;;
18046;SDS011;9148;51.454;13.862;2023-03-19T12:56:20;3.08;;;2.33;;
18046;SDS011;9148;51.454;13.862;2023-03-19T12:58:58;2.47;;;2.15;;
18046;SDS011;9148;51.454;13.862;2023-03-19T13:01:39;4.47;;;3.10;;
18046;SDS011;9148;51.454;13.862;2023-03-19T13:04:19;5.68;;;2.17;;
18046;SDS011;9148;51.454;13.862;2023-03-19T13:06:54;4.28;;;2.63;;
18046;SDS011;9148;51.454;13.862;2023-03-19T13:09:28;3.63;;;2.55;;
18046;SDS011;9148;51.454;13.862;2023-03-19T13:12:18;6.50;;;3.03;;
18046;SDS011;9148;51.454;13.862;2023-03-19T13:14:56;5.10;;;2.92;;
18046;SDS011;9148;51.454;13.862;2023-03-19T13:18:11;7.00;;;2.75;;
18046;SDS011;9148;51.454;13.862;2023-03-19T13:21:14;5.57;;;3.45;;
18046;SDS011;9148;51.454;13.862;2023-03-19T13:23:47;5.57;;;2.53;;
18046;SDS011;9148;51.454;13.862;2023-03-19T13:26:24;4.82;;;3.40;;
18046;SDS011;9148;51.454;13.862;2023-03-19T13:29:07;7.13;;;2.63;;
18046;SDS011;9148;51.454;13.862;2023-03-19T13:31:42;5.90;;;2.80;;
18046;SDS011;9148;51.454;13.862;2023-03-19T13:36:54;2.97;;;2.63;;
18046;SDS011;9148;51.454;13.862;2023-03-19T13:39:36;3.92;;;2.60;;
18046;SDS011;9148;51.454;13.862;2023-03-19T13:42:21;4.65;;;2.70;;
18046;SDS011;9148;51.454;13.862;2023-03-19T13:45:26;4.68;;;2.80;;
18046;SDS011;9148;51.454;13.862;2023-03-19T13:53:52;4.05;;;2.97;;
18046;SDS011;9148;51.454;13.862;2023-03-19T13:59:36;6.95;;;3.72;;
18046;SDS011;9148;51.454;13.862;2023-03-19T14:04:51;6.82;;;3.65;;
18046;SDS011;9148;51.454;13.862;2023-03-19T14:07:33;4.93;;;2.55;;
18046;SDS011;9148;51.454;13.862;2023-03-19T14:12:46;3.92;;;2.92;;
18046;SDS011;9148;51.454;13.862;2023-03-19T14:15:22;5.97;;;3.40;;
18046;SDS011;9148;51.454;13.862;2023-03-19T14:23:01;5.55;;;2.65;;
18046;SDS011;9148;51.454;13.862;2023-03-19T14:34:29;4.45;;;3.10;;
18046;SDS011;9148;51.454;13.862;2023-03-19T14:37:14;3.95;;;2.20;;
18046;SDS011;9148;51.454;13.862;2023-03-19T14:46:03;6.15;;;3.45;;
18046;SDS011;9148;51.454;13.862;2023-03-19T14:51:56;4.43;;;3.13;;
18046;SDS011;9148;51.454;13.862;2023-03-19T14:54:39;9.05;;;3.42;;
18046;SDS011;9148;51.454;13.862;2023-03-19T14:57:17;6.22;;;2.92;;
18046;SDS011;9148;51.454;13.862;2023-03-19T14:59:47;4.33;;;3.30;;
18046;SDS011;9148;51.454;13.862;2023-03-19T15:02:18;5.80;;;3.45;;
18046;SDS011;9148;51.454;13.862;2023-03-19T15:04:50;4.50;;;3.92;;
18046;SDS011;9148;51.454;13.862;2023-03-19T15:07:19;6.50;;;3.22;;
18046;SDS011;9148;51.454;13.862;2023-03-19T15:09:52;4.05;;;3.65;;
18046;SDS011;9148;51.454;13.862;2023-03-19T15:18:39;5.25;;;3.25;;
18046;SDS011;9148;51.454;13.862;2023-03-19T15:21:05;6.00;;;3.35;;
18046;SDS011;9148;51.454;13.862;2023-03-19T15:23:31;3.88;;;3.38;;
18046;SDS011;9148;51.454;13.862;2023-03-19T15:25:58;6.55;;;3.65;;
18046;SDS011;9148;51.454;13.862;2023-03-19T15:28:27;5.10;;;4.05;;
18046;SDS011;9148;51.454;13.862;2023-03-19T15:31:07;3.80;;;3.22;;
18046;SDS011;9148;51.454;13.862;2023-03-19T15:33:36;7.40;;;4.43;;
18046;SDS011;9148;51.454;13.862;2023-03-19T15:38:45;3.00;;;2.65;;
18046;SDS011;9148;51.454;13.862;2023-03-19T15:41:23;7.03;;;3.55;;
18046;SDS011;9148;51.454;13.862;2023-03-19T15:43:50;4.00;;;3.60;;
18046;SDS011;9148;51.454;13.862;2023-03-19T15:46:17;4.55;;;3.42;;
18046;SDS011;9148;51.454;13.862;2023-03-19T15:51:20;3.25;;;2.95;;
18046;SDS011;9148;51.454;13.862;2023-03-19T15:53:48;6.15;;;3.25;;
18046;SDS011;9148;51.454;13.862;2023-03-19T15:56:15;3.70;;;3.05;;
18046;SDS011;9148;51.454;13.862;2023-03-19T15:58:44;8.57;;;3.50;;
18046;SDS011;9148;51.454;13.862;2023-03-19T16:01:12;3.72;;;3.10;;
18046;SDS011;9148;51.454;13.862;2023-03-19T16:03:41;4.43;;;3.00;;
18046;SDS011;9148;51.454;13.862;2023-03-19T16:06:16;7.72;;;3.72;;
18046;SDS011;9148;51.454;13.862;2023-03-19T16:08:50;5.57;;;3.67;;
18046;SDS011;9148;51.454;13.862;2023-03-19T16:11:28;6.20;;;3.95;;
18046;SDS011;9148;51.454;13.862;2023-03-19T16:14:00;6.20;;;4.47;;
18046;SDS011;9148;51.454;13.862;2023-03-19T16:16:41;7.25;;;4.50;;
18046;SDS011;9148;51.454;13.862;2023-03-19T16:22:02;9.38;;;4.68;;
18046;SDS011;9148;51.454;13.862;2023-03-19T16:24:36;7.18;;;5.35;;
18046;SDS011;9148;51.454;13.862;2023-03-19T16:27:08;23.95;;;12.10;;
18046;SDS011;9148;51.454;13.862;2023-03-19T16:29:41;7.03;;;3.45;;
18046;SDS011;9148;51.454;13.862;2023-03-19T16:34:47;2.67;;;2.10;;
18046;SDS011;9148;51.454;13.862;2023-03-19T16:40:07;2.60;;;2.15;;
18046;SDS011;9148;51.454;13.862;2023-03-19T16:43:05;2.15;;;1.92;;
18046;SDS011;9148;51.454;13.862;2023-03-19T16:45:39;5.20;;;2.13;;
18046;SDS011;9148;51.454;13.862;2023-03-19T16:48:07;3.40;;;1.77;;
18046;SDS011;9148;51.454;13.862;2023-03-19T16:50:45;1.83;;;1.52;;
18046;SDS011;9148;51.454;13.862;2023-03-19T16:55:42;1.80;;;1.42;;
18046;SDS011;9148;51.454;13.862;2023-03-19T17:00:50;3.85;;;1.45;;